createdAt,value
2023-02-25T00:02:32.427Z,9.60
2023-02-25T00:07:34.499Z,9.20
2023-02-25T00:12:36.453Z,9.10
2023-02-25T00:17:39.973Z,8.80
2023-02-25T00:22:42.492Z,8.60
2023-02-25T00:27:44.762Z,8.50
2023-02-25T00:32:46.848Z,8.20
2023-02-25T00:37:50.838Z,8.40
2023-02-25T00:42:53.018Z,8.10
2023-02-25T00:47:56.153Z,8.20
2023-02-25T00:52:58.160Z,7.80
2023-02-25T00:58:03.696Z,7.80
2023-02-25T01:03:05.772Z,7.70
2023-02-25T01:08:07.819Z,7.70
2023-02-25T01:13:09.875Z,7.50
2023-02-25T01:18:12.158Z,7.50
2023-02-25T01:23:14.152Z,7.40
2023-02-25T01:28:16.152Z,7.10
2023-02-25T01:33:18.325Z,6.90
2023-02-25T01:38:20.333Z,6.80
2023-02-25T01:43:22.335Z,6.60
2023-02-25T01:48:27.695Z,6.60
2023-02-25T01:53:33.213Z,6.50
2023-02-25T01:58:35.205Z,6.50
2023-02-25T02:03:37.980Z,6.40
2023-02-25T02:08:41.029Z,6.50
2023-02-25T02:13:46.628Z,6.40
2023-02-25T02:23:56.827Z,6.30
2023-02-25T02:29:17.331Z,6.40
2023-02-25T02:34:31.463Z,6.20
2023-02-25T02:39:36.410Z,6.30
2023-02-25T02:44:41.494Z,6.30
2023-02-25T02:49:48.514Z,6.30
2023-02-25T02:54:53.522Z,6.50
2023-02-25T02:59:58.096Z,6.70
2023-02-25T03:05:02.107Z,6.90
2023-02-25T03:10:05.766Z,7.10
2023-02-25T03:15:08.890Z,7.20
2023-02-25T03:20:21.448Z,7.20
2023-02-25T03:30:28.613Z,6.90
2023-02-25T03:35:32.164Z,6.80
2023-02-25T03:45:37.845Z,6.80
2023-02-25T03:50:59.741Z,6.70
2023-02-25T03:56:05.314Z,6.90
2023-02-25T04:01:10.112Z,6.70
2023-02-25T04:06:13.158Z,7.00
2023-02-25T04:11:15.388Z,6.90
2023-02-25T04:16:18.176Z,7.10
2023-02-25T04:21:29.641Z,7.20
2023-02-25T04:26:31.946Z,7.40
2023-02-25T04:31:34.031Z,7.50
2023-02-25T04:36:36.131Z,7.60
2023-02-25T04:41:38.141Z,7.70
2023-02-25T04:46:40.858Z,8.10
2023-02-25T04:51:42.893Z,7.90
2023-02-25T04:56:45.047Z,7.80
2023-02-25T05:01:47.152Z,7.90
2023-02-25T05:06:49.237Z,7.90
2023-02-25T05:11:51.238Z,8.00
2023-02-25T05:16:53.204Z,8.00
2023-02-25T05:21:55.159Z,8.00
2023-02-25T05:26:57.180Z,8.30
2023-02-25T05:31:59.412Z,8.20
2023-02-25T05:42:04.271Z,8.20
2023-02-25T05:47:07.543Z,8.40
2023-02-25T05:52:10.116Z,8.30
2023-02-25T05:57:12.079Z,8.00
2023-02-25T06:02:14.184Z,8.40
2023-02-25T06:07:16.324Z,8.10
2023-02-25T06:12:18.317Z,8.30
2023-02-25T06:17:20.333Z,8.20
2023-02-25T06:22:23.477Z,8.20
2023-02-25T06:27:25.446Z,8.20
2023-02-25T06:32:27.553Z,8.30
2023-02-25T06:37:29.648Z,8.10
2023-02-25T06:42:31.629Z,8.50
2023-02-25T06:47:33.731Z,8.10
2023-02-25T06:52:35.773Z,8.30
2023-02-25T06:57:37.772Z,8.20
2023-02-25T07:02:39.927Z,8.20
2023-02-25T07:07:42.028Z,8.30
2023-02-25T07:12:44.052Z,8.50
2023-02-25T07:17:46.090Z,8.40
2023-02-25T07:22:48.857Z,8.50
2023-02-25T07:27:50.898Z,8.40
2023-02-25T07:32:52.914Z,8.40
2023-02-25T07:37:54.993Z,8.30
2023-02-25T07:42:56.943Z,8.20
2023-02-25T07:47:58.938Z,8.30
2023-02-25T07:53:00.989Z,8.30
2023-02-25T07:58:03.067Z,8.30
2023-02-25T08:03:05.452Z,8.40
2023-02-25T08:08:07.590Z,8.50
2023-02-25T08:13:09.593Z,8.50
2023-02-25T08:18:12.087Z,8.70
2023-02-25T08:23:14.228Z,8.90
2023-02-25T08:28:16.241Z,9.00
2023-02-25T08:33:18.795Z,9.30
2023-02-25T08:38:20.803Z,9.20
2023-02-25T08:43:22.831Z,9.40
2023-02-25T08:48:24.913Z,9.40
2023-02-25T08:53:26.901Z,9.60
2023-02-25T08:58:29.594Z,9.70
2023-02-25T09:03:31.613Z,9.70
2023-02-25T09:08:33.720Z,9.80
2023-02-25T09:13:35.736Z,10.00
2023-02-25T09:18:37.730Z,10.00
2023-02-25T09:23:39.874Z,10.10
2023-02-25T09:28:41.990Z,10.10
2023-02-25T09:33:44.684Z,10.40
2023-02-25T09:43:52.123Z,10.20
2023-02-25T09:48:57.462Z,10.10
2023-02-25T09:54:13.761Z,10.20
2023-02-25T09:59:21.364Z,10.20
2023-02-25T10:04:46.635Z,10.30
2023-02-25T10:09:50.274Z,10.40
2023-02-25T10:14:58.365Z,10.50
2023-02-25T10:20:20.128Z,10.60
2023-02-25T10:25:25.123Z,10.70
2023-02-25T10:30:33.006Z,10.90
2023-02-25T10:35:39.247Z,11.10
2023-02-25T10:40:41.232Z,10.80
2023-02-25T10:45:45.552Z,11.00
2023-02-25T10:51:09.632Z,10.90
2023-02-25T10:56:11.652Z,11.10
2023-02-25T11:01:15.279Z,11.00
2023-02-25T11:06:25.080Z,11.10
2023-02-25T11:11:31.031Z,11.00
2023-02-25T11:16:35.335Z,11.10
2023-02-25T11:21:38.864Z,11.20
2023-02-25T11:26:45.628Z,11.30
2023-02-25T11:31:50.846Z,11.40
2023-02-25T11:36:53.099Z,11.30
2023-02-25T11:41:56.494Z,11.40
2023-02-25T11:47:01.364Z,11.70
2023-02-25T11:52:09.377Z,11.70
2023-02-25T11:57:17.939Z,11.80
2023-02-25T12:02:24.351Z,12.00
2023-02-25T12:07:51.428Z,11.80
2023-02-25T12:13:19.089Z,11.80
2023-02-25T12:18:39.843Z,11.80
2023-02-25T12:23:44.651Z,12.00
2023-02-25T12:28:54.649Z,11.80
2023-02-25T12:34:26.040Z,12.10
2023-02-25T12:39:46.555Z,12.10
2023-02-25T12:44:57.588Z,12.40
2023-02-25T12:49:59.650Z,12.50
2023-02-25T12:55:04.438Z,13.00
2023-02-25T13:00:25.214Z,13.20
2023-02-25T13:05:36.567Z,13.30
2023-02-25T13:10:54.158Z,13.30
2023-02-25T13:16:14.645Z,13.20
2023-02-25T13:21:19.745Z,13.30
2023-02-25T13:26:30.017Z,13.10
2023-02-25T13:31:41.040Z,13.00
2023-02-25T13:37:06.457Z,12.90
2023-02-25T13:42:17.820Z,12.90
2023-02-25T13:47:25.784Z,12.80
2023-02-25T14:09:06.880Z,12.40
2023-02-25T14:14:27.660Z,12.10
2023-02-25T14:19:48.989Z,12.10
2023-02-25T14:30:05.650Z,12.50
2023-02-25T14:35:37.158Z,12.30
2023-02-25T14:40:46.996Z,12.20
2023-02-25T14:45:58.556Z,12.00
2023-02-25T14:51:39.938Z,11.90
2023-02-25T14:56:49.252Z,11.90
2023-02-25T15:01:54.606Z,12.10
2023-02-25T15:07:20.510Z,11.90
2023-02-25T15:12:40.528Z,11.60
2023-02-25T15:17:55.735Z,11.50
2023-02-25T15:23:07.010Z,11.00
2023-02-25T15:28:27.949Z,10.80
2023-02-25T15:33:34.676Z,10.60
2023-02-25T15:38:46.904Z,10.60
2023-02-25T15:43:49.091Z,10.40
2023-02-25T15:49:12.981Z,10.30
2023-02-25T15:54:30.227Z,10.60
2023-02-25T15:59:44.320Z,10.50
2023-02-25T16:04:48.963Z,10.10
2023-02-25T16:09:55.126Z,10.10
2023-02-25T16:14:58.444Z,10.00
2023-02-25T16:25:03.316Z,10.00
2023-02-25T16:30:08.947Z,9.80
2023-02-25T16:35:18.459Z,9.80
2023-02-25T16:40:38.239Z,9.80
2023-02-25T16:45:45.336Z,9.80
2023-02-25T16:50:48.590Z,9.70
2023-02-25T16:55:51.478Z,9.80
2023-02-25T17:01:01.556Z,9.50
2023-02-25T17:06:06.293Z,9.40
2023-02-25T17:16:21.800Z,9.10
2023-02-25T17:21:26.067Z,8.90
2023-02-25T17:26:30.954Z,8.90
2023-02-25T17:31:41.734Z,8.60
2023-02-25T17:36:44.851Z,8.50
2023-02-25T17:41:47.485Z,8.50
2023-02-25T17:46:51.092Z,8.50
2023-02-25T17:51:55.033Z,8.60
2023-02-25T17:57:07.759Z,8.40
2023-02-25T18:02:35.986Z,8.40
2023-02-25T18:07:42.480Z,8.30
2023-02-25T18:12:47.310Z,8.10
2023-02-25T18:17:50.115Z,7.80
2023-02-25T18:22:53.429Z,7.70
2023-02-25T18:27:56.199Z,7.60
2023-02-25T18:32:59.300Z,7.40
2023-02-25T18:38:02.372Z,7.30
2023-02-25T18:43:04.848Z,7.10
2023-02-25T18:48:06.916Z,7.00
2023-02-25T18:53:13.404Z,7.10
2023-02-25T18:58:16.517Z,7.00
2023-02-25T19:03:32.687Z,6.90
2023-02-25T19:08:34.680Z,6.90
2023-02-25T19:13:38.614Z,7.00
2023-02-25T19:18:42.726Z,7.00
2023-02-25T19:23:45.363Z,7.00
2023-02-25T19:28:47.465Z,7.00
2023-02-25T19:33:49.777Z,7.00
2023-02-25T19:38:51.912Z,7.00
2023-02-25T19:43:54.169Z,7.00
2023-02-25T19:48:56.319Z,6.80
2023-02-25T19:53:58.369Z,6.90
2023-02-25T19:59:00.407Z,6.80
2023-02-25T20:04:02.608Z,6.80
2023-02-25T20:09:06.663Z,6.70
2023-02-25T20:14:08.778Z,6.80
2023-02-25T20:19:11.082Z,6.50
2023-02-25T20:24:13.584Z,6.20
2023-02-25T20:29:16.132Z,6.20
2023-02-25T20:34:19.854Z,6.10
2023-02-25T20:39:21.860Z,5.90
2023-02-25T20:44:23.989Z,5.90
2023-02-25T20:49:26.228Z,5.80
2023-02-25T20:54:28.264Z,5.60
2023-02-25T21:04:32.985Z,5.20
2023-02-25T21:09:35.084Z,4.90
2023-02-25T21:14:37.156Z,4.70
2023-02-25T21:19:39.197Z,4.70
2023-02-25T21:24:41.190Z,4.60
2023-02-25T21:29:43.192Z,4.50
2023-02-25T21:34:45.262Z,4.20
2023-02-25T21:39:47.343Z,4.10
2023-02-25T21:44:49.320Z,4.10
2023-02-25T21:49:51.356Z,4.20
2023-02-25T21:54:54.076Z,4.10
2023-02-25T21:59:56.986Z,3.90
2023-02-25T22:04:59.045Z,3.90
2023-02-25T22:10:01.059Z,3.90
2023-02-25T22:15:03.426Z,3.80
2023-02-25T22:20:06.290Z,3.80
2023-02-25T22:25:08.347Z,3.80
2023-02-25T22:30:12.581Z,3.60
2023-02-25T22:35:14.717Z,3.60
2023-02-25T22:40:16.780Z,3.40
2023-02-25T22:45:18.807Z,3.40
2023-02-25T22:50:20.964Z,3.30
2023-02-25T22:55:22.940Z,3.40
2023-02-25T23:00:26.890Z,3.10
2023-02-25T23:05:30.168Z,3.10
2023-02-25T23:10:32.197Z,3.00
2023-02-25T23:15:35.712Z,2.90
2023-02-25T23:20:39.431Z,2.80
2023-02-25T23:25:42.376Z,2.90
2023-02-25T23:35:49.895Z,2.60
2023-02-25T23:40:52.112Z,2.40
2023-02-25T23:45:54.142Z,2.70
2023-02-25T23:50:56.329Z,2.40
2023-02-25T23:56:04.681Z,2.40
